Terminal Aerodrome Forecast
Issued by NWS

Home | Current Version | Previous Version | Text Only | Print | Product List | Glossary On
Versions: 1 2 3 4 5 6 7 8 9 10 11 12 13 14 15
568
FTUS46 KSEW 221120
TAFPAE
TAF
KPAE 221120Z 2212/2312 16010KT P6SM VCSH SCT012 BKN070
      TEMPO 2212/2216 -SHRA BKN012 BKN070
     FM221600 21010KT P6SM VCSH SCT020 BKN070
      TEMPO 2216/2218 -SHRA BKN020 BKN070
     FM221800 22012KT P6SM BKN070
     FM230400 16005KT P6SM BKN050=

USA.gov is the U.S. government's official web portal to all federal, state and local government web resources and services.